Time;durP1;ratioP1;P1;durP2;ratioP2;P2;SDS_P1;SDS_P2;PMS_P1;PMS_P2;Temp;Humidity;BMP_temperature;BMP_pressure;BME280_temperature;BME280_humidity;BME280_pressure;Samples;Min_cycle;Max_cycle;Signal;HPM_P1;HPM_P2
2022/11/15 00:02:05;;;;;;;84.07;29.67;;;;;;;16.38;50.60;100849.91;5052892;28;20433;-68
2022/11/15 00:04:30;;;;;;;76.73;29.97;;;;;;;16.78;48.84;100841.44;5050942;28;20028;-67
2022/11/15 00:06:55;;;;;;;81.03;32.13;;;;;;;16.75;49.19;100849.47;5051374;28;20036;-67
2022/11/15 00:09:21;;;;;;;74.17;29.97;;;;;;;16.90;48.69;100841.97;5051618;28;20025;-67
2022/11/15 00:11:46;;;;;;;81.80;31.53;;;;;;;16.53;49.71;100838.81;5050201;28;20055;-68
2022/11/15 00:14:11;;;;;;;100.57;32.77;;;;;;;16.91;48.97;100838.41;5051491;28;20473;-67
2022/11/15 00:16:37;;;;;;;90.23;31.03;;;;;;;16.59;48.95;100835.94;5052181;28;20170;-67
2022/11/15 00:19:02;;;;;;;102.77;32.60;;;;;;;16.50;49.44;100828.38;5052138;28;20044;-67
2022/11/15 00:21:28;;;;;;;96.17;32.53;;;;;;;16.37;50.92;100842.91;5049830;28;20075;-67
2022/11/15 00:23:53;;;;;;;96.30;31.40;;;;;;;16.14;51.76;100835.75;5050584;28;20191;-67
2022/11/15 00:26:19;;;;;;;91.00;32.07;;;;;;;16.20;50.95;100825.03;5051254;28;20043;-67
2022/11/15 00:28:44;;;;;;;94.60;32.57;;;;;;;16.56;49.62;100827.31;5052489;28;20024;-67
2022/11/15 00:31:13;;;;;;;86.50;30.43;;;;;;;16.42;51.07;100828.63;5052440;28;20104;-67
2022/11/15 00:33:38;;;;;;;104.50;31.43;;;;;;;16.82;49.73;100822.88;5051888;28;20079;-67
2022/11/15 00:36:07;;;;;;;96.37;33.07;;;;;;;17.44;47.83;100821.47;5049484;28;20033;-67
2022/11/15 00:38:37;;;;;;;113.90;35.37;;;;;;;16.84;49.08;100819.25;5049481;28;20029;-68
2022/11/15 00:41:05;;;;;;;85.67;33.10;;;;;;;16.45;50.44;100820.59;5052189;28;20032;-67
2022/11/15 00:43:31;;;;;;;96.40;33.43;;;;;;;16.42;51.77;100820.72;5050828;28;20033;-67
2022/11/15 00:45:56;;;;;;;97.97;32.17;;;;;;;16.84;49.57;100815.75;5051581;28;20032;-67
2022/11/15 00:48:22;;;;;;;102.80;34.67;;;;;;;17.33;48.14;100808.66;5051248;28;20037;-68
2022/11/15 00:50:48;;;;;;;92.97;33.37;;;;;;;16.60;50.70;100807.81;5051356;28;20021;-67
2022/11/15 00:53:14;;;;;;;99.23;34.67;;;;;;;16.71;50.77;100810.91;5049390;28;20107;-67
2022/11/15 00:55:39;;;;;;;88.03;31.50;;;;;;;17.33;48.90;100800.75;5051494;28;20111;-67
2022/11/15 00:58:04;;;;;;;105.73;33.63;;;;;;;16.16;51.60;100807.59;5051580;28;20497;-67
2022/11/15 01:00:30;;;;;;;100.57;32.23;;;;;;;16.45;51.57;100810.06;5049932;28;20139;-67
2022/11/15 01:02:56;;;;;;;89.87;31.30;;;;;;;17.46;48.77;100809.91;5050697;28;20440;-67
2022/11/15 01:05:22;;;;;;;92.30;31.77;;;;;;;17.40;48.92;100799.56;5049939;28;20457;-67
2022/11/15 01:07:51;;;;;;;106.33;34.03;;;;;;;16.62;50.42;100803.31;5050975;28;20111;-67
2022/11/15 01:10:17;;;;;;;95.47;32.93;;;;;;;17.39;49.03;100786.44;5048982;28;20086;-68
2022/11/15 01:12:42;;;;;;;104.00;33.63;;;;;;;17.33;49.15;100791.97;5082766;28;20413;-67
2022/11/15 01:15:08;;;;;;;96.00;32.07;;;;;;;17.69;48.12;100788.78;5049650;28;20039;-67
2022/11/15 01:17:33;;;;;;;103.07;34.63;;;;;;;16.95;49.88;100784.56;5050337;28;20033;-68
2022/11/15 01:19:58;;;;;;;105.63;33.80;;;;;;;16.27;51.90;100779.91;5050799;28;20029;-67
2022/11/15 01:22:24;;;;;;;103.80;32.97;;;;;;;16.60;51.94;100781.44;5049114;28;20033;-68
2022/11/15 01:24:50;;;;;;;99.23;33.83;;;;;;;16.74;51.49;100779.13;5050025;28;20497;-67
2022/11/15 01:27:16;;;;;;;110.43;33.33;;;;;;;17.22;50.57;100784.44;5051503;28;20040;-68
2022/11/15 01:29:41;;;;;;;114.13;35.87;;;;;;;17.81;49.02;100773.25;5049782;28;20036;-68
2022/11/15 01:32:07;;;;;;;96.77;33.47;;;;;;;16.90;51.40;100773.34;5049011;28;20040;-68
2022/11/15 01:34:32;;;;;;;96.13;34.97;;;;;;;16.97;51.35;100774.81;5051050;28;20063;-67
2022/11/15 01:36:58;;;;;;;109.03;35.27;;;;;;;17.32;50.80;100772.59;5049738;28;20033;-67
2022/11/15 01:39:24;;;;;;;103.57;34.50;;;;;;;16.61;52.31;100780.50;5049641;28;20028;-67
2022/11/15 01:41:49;;;;;;;101.20;36.77;;;;;;;17.76;49.73;100769.09;5049488;28;20029;-67
2022/11/15 01:44:33;;;;;;;113.07;35.87;;;;;;;17.73;49.75;100764.78;5081998;28;20025;-67
2022/11/15 01:47:02;;;;;;;108.97;35.10;;;;;;;17.86;49.42;100764.28;5049995;28;20064;-67
2022/11/15 01:49:32;;;;;;;105.43;35.70;;;;;;;17.74;49.22;100761.22;5050110;28;20035;-67
2022/11/15 01:51:59;;;;;;;96.03;33.33;;;;;;;17.16;49.93;100763.53;5045130;28;20024;-67
2022/11/15 01:54:25;;;;;;;118.80;37.30;;;;;;;17.74;49.84;100758.59;5048752;28;20025;-68
2022/11/15 01:56:55;;;;;;;106.33;34.60;;;;;;;17.16;51.02;100758.25;5083134;28;20041;-67
2022/11/15 01:59:21;;;;;;;106.87;35.30;;;;;;;17.39;51.02;100755.59;5049516;28;20043;-67
2022/11/15 02:01:47;;;;;;;109.07;35.17;;;;;;;17.92;49.47;100754.34;5050675;28;20071;-67
2022/11/15 02:04:18;;;;;;;96.97;34.83;;;;;;;17.87;49.48;100750.16;5049337;28;20037;-67
2022/11/15 02:06:45;;;;;;;115.17;36.90;;;;;;;18.17;48.94;100744.53;5048247;28;20521;-67
2022/11/15 02:09:12;;;;;;;98.27;34.57;;;;;;;17.30;51.37;100740.09;5048934;28;20029;-67
2022/11/15 02:11:37;;;;;;;95.27;36.43;;;;;;;17.30;51.00;100732.19;5082446;28;20021;-68
2022/11/15 02:14:05;;;;;;;107.83;37.10;;;;;;;17.96;49.99;100726.00;5048188;28;20103;-67
2022/11/15 02:17:13;;;;;;;96.47;36.17;;;;;;;17.02;52.24;100722.72;5050003;28;20029;-67
2022/11/15 02:20:23;;;;;;;97.93;34.47;;;;;;;17.36;52.84;100718.72;5049402;28;20071;-67
2022/11/15 02:23:16;;;;;;;99.87;35.63;;;;;;;18.16;50.61;100709.25;5008760;28;20050;-67
2022/11/15 02:25:44;;;;;;;;;;;;;;;17.81;50.59;100709.81;5006398;28;20487;-67
2022/11/15 02:28:48;;;;;;;109.57;36.67;;;;;;;17.07;53.16;100710.16;5047272;28;20457;-67
2022/11/15 02:31:31;;;;;;;;;;;;;;;18.20;50.31;100704.69;5028517;28;20033;-67
2022/11/15 02:34:03;;;;;;;97.53;34.77;;;;;;;17.51;51.86;100703.19;5065292;28;19912;-67
2022/11/15 02:37:14;;;;;;;99.13;34.43;;;;;;;18.09;50.77;100703.41;5047592;28;20033;-67
2022/11/15 02:40:02;;;;;;;99.47;34.40;;;;;;;17.93;51.55;100697.06;5039393;28;20028;-67
2022/11/15 02:45:39;;;;;;;98.40;35.50;;;;;;;18.82;48.68;100697.47;5050892;28;20040;-67
2022/11/15 02:48:07;;;;;;;92.13;36.37;;;;;;;18.04;51.28;100689.50;5050892;28;20064;-67
2022/11/15 02:50:33;;;;;;;95.93;34.57;;;;;;;18.32;50.26;100688.28;5049672;28;20027;-67
2022/11/15 02:52:58;;;;;;;106.40;36.57;;;;;;;18.36;50.57;100689.88;5050697;28;20021;-67
2022/11/15 02:55:36;;;;;;;93.00;34.90;;;;;;;18.29;50.42;100686.63;5050962;28;20050;-67
2022/11/15 02:58:07;;;;;;;85.20;32.73;;;;;;;19.03;48.68;100685.06;5048701;28;20025;-67
2022/11/15 03:00:47;;;;;;;91.10;33.70;;;;;;;18.98;49.15;100681.78;5048343;28;20134;-67
2022/11/15 03:03:28;;;;;;;79.83;32.50;;;;;;;18.78;49.61;100694.13;5047091;28;20054;-67
2022/11/15 03:06:06;;;;;;;89.80;31.10;;;;;;;18.58;50.39;100678.31;5050707;28;20179;-68
2022/11/15 03:08:39;;;;;;;84.57;32.37;;;;;;;17.80;52.50;100686.97;5048239;28;20120;-67
2022/11/15 03:11:09;;;;;;;81.83;32.87;;;;;;;17.71;53.41;100684.72;5049945;28;20017;-67
2022/11/15 03:13:35;;;;;;;82.00;32.17;;;;;;;17.95;53.54;100679.31;5048338;28;20033;-67
2022/11/15 03:16:19;;;;;;;80.43;32.97;;;;;;;17.93;53.54;100681.19;5048793;28;20025;-67
2022/11/15 03:18:50;;;;;;;76.47;33.70;;;;;;;17.55;55.47;100681.84;5049389;28;20052;-67
2022/11/15 03:21:18;;;;;;;71.17;30.67;;;;;;;18.59;51.98;100678.25;5048711;28;20033;-67
2022/11/15 03:23:45;;;;;;;72.00;30.23;;;;;;;18.62;52.34;100679.91;5081066;28;20064;-67
2022/11/15 03:26:14;;;;;;;70.60;30.40;;;;;;;18.30;52.72;100679.56;5049915;28;20048;-67
2022/11/15 03:28:45;;;;;;;79.73;31.90;;;;;;;19.07;50.57;100691.94;5047472;28;20028;-67
2022/11/15 03:34:02;;;;;;;63.50;29.07;;;;;;;18.59;52.05;100686.19;5050909;28;20047;-68
2022/11/15 03:36:30;;;;;;;71.13;29.73;;;;;;;18.96;50.96;100683.66;5052428;28;20036;-68
2022/11/15 03:39:02;;;;;;;57.77;29.57;;;;;;;19.06;51.33;100681.41;5050618;28;20417;-68
2022/11/15 03:41:48;;;;;;;58.03;29.00;;;;;;;19.24;50.45;100679.66;5053404;28;20035;-67
2022/11/15 03:44:51;;;;;;;63.83;28.90;;;;;;;19.61;48.90;100680.50;5052783;28;20032;-67
2022/11/15 03:47:23;;;;;;;60.90;26.90;;;;;;;18.72;52.02;100686.47;5033803;28;20136;-68
2022/11/15 03:50:01;;;;;;;55.75;26.23;;;;;;;19.01;51.32;100691.38;5049061;28;20025;-68
2022/11/15 03:52:32;;;;;;;51.33;25.97;;;;;;;19.29;50.74;100686.44;5084261;28;20036;-68
2022/11/15 03:55:00;;;;;;;53.30;24.77;;;;;;;19.01;51.76;100681.63;5051589;28;20401;-68
2022/11/15 03:57:26;;;;;;;48.53;23.37;;;;;;;18.60;52.64;100681.75;5052522;28;20025;-67
2022/11/15 03:59:51;;;;;;;47.23;24.40;;;;;;;18.48;53.67;100675.25;5052368;28;20056;-67
2022/11/15 04:02:16;;;;;;;51.20;23.37;;;;;;;19.16;52.06;100669.44;5052061;28;20025;-67
2022/11/15 04:04:42;;;;;;;46.13;23.67;;;;;;;19.47;51.70;100668.78;5052940;28;20020;-67
2022/11/15 04:07:07;;;;;;;47.00;22.70;;;;;;;18.87;52.92;100668.16;5052108;28;20033;-68
2022/11/15 04:09:33;;;;;;;45.87;23.90;;;;;;;19.66;50.93;100662.56;5052483;28;20147;-68
2022/11/15 04:11:58;;;;;;;42.93;23.17;;;;;;;19.77;50.64;100669.94;5052166;28;20025;-68
2022/11/15 04:14:24;;;;;;;43.67;22.47;;;;;;;19.79;50.60;100668.94;5050829;28;20033;-68
2022/11/15 04:16:49;;;;;;;39.63;22.10;;;;;;;18.71;52.27;100655.66;5051132;28;20335;-68
2022/11/15 04:24:42;;;;;;;38.50;21.60;;;;;;;19.83;50.34;100651.97;5049255;28;20091;-67
2022/11/15 04:27:08;;;;;;;37.33;20.53;;;;;;;19.60;50.89;100646.97;5049631;28;20041;-67
2022/11/15 04:29:36;;;;;;;39.63;19.30;;;;;;;19.64;50.39;100648.53;5053195;28;20021;-68
2022/11/15 04:32:06;;;;;;;37.00;20.23;;;;;;;19.14;52.06;100650.97;5051689;28;20498;-68
2022/11/15 04:34:32;;;;;;;39.00;20.00;;;;;;;19.33;51.53;100660.69;5051761;28;20036;-68
2022/11/15 04:37:13;;;;;;;39.70;21.33;;;;;;;18.96;53.48;100657.16;5053203;28;20033;-68
2022/11/15 04:39:40;;;;;;;39.97;20.27;;;;;;;19.08;52.39;100667.19;5049411;28;20068;-68
2022/11/15 04:42:05;;;;;;;36.40;19.00;;;;;;;18.80;53.68;100662.28;5049940;28;20079;-68
2022/11/15 04:44:30;;;;;;;38.53;19.27;;;;;;;18.48;54.81;100665.50;5051237;28;20131;-68
2022/11/15 04:46:56;;;;;;;41.07;20.33;;;;;;;18.44;54.67;100671.84;5085378;28;20025;-67
2022/11/15 04:49:21;;;;;;;34.50;19.07;;;;;;;19.06;53.88;100674.31;5049912;28;20054;-68
2022/11/15 04:51:47;;;;;;;36.50;19.73;;;;;;;18.78;54.61;100667.66;5051010;28;20460;-68
2022/11/15 04:54:12;;;;;;;37.50;19.53;;;;;;;19.11;53.11;100677.63;5051104;28;20107;-68
2022/11/15 04:56:38;;;;;;;37.00;19.77;;;;;;;19.26;52.90;100675.13;5050915;28;20074;-68
2022/11/15 04:59:03;;;;;;;39.53;19.47;;;;;;;19.11;52.64;100672.31;5049751;28;20379;-67
2022/11/15 05:01:28;;;;;;;34.57;17.90;;;;;;;19.09;53.19;100676.81;5051209;28;20131;-67
2022/11/15 05:06:38;;;;;;;36.43;18.30;;;;;;;18.04;58.14;100684.22;5051389;28;20070;-68
2022/11/15 05:09:04;;;;;;;29.43;17.20;;;;;;;18.38;56.48;100677.44;5049653;28;20497;-67
2022/11/15 05:11:29;;;;;;;25.67;15.70;;;;;;;18.91;55.23;100683.00;5050582;28;20120;-67
2022/11/15 05:13:55;;;;;;;29.60;17.10;;;;;;;18.31;57.05;100681.28;5050218;28;20119;-68
2022/11/15 05:16:20;;;;;;;34.07;15.77;;;;;;;18.64;55.76;100688.59;5049995;28;20033;-68
2022/11/15 05:18:45;;;;;;;28.27;15.80;;;;;;;18.44;56.78;100695.69;5049421;28;20068;-67
2022/11/15 05:21:13;;;;;;;33.80;17.47;;;;;;;18.65;55.92;100691.19;5051603;28;20116;-68
2022/11/15 05:23:40;;;;;;;31.53;15.50;;;;;;;18.90;55.71;100683.94;5050637;28;20108;-68
2022/11/15 05:26:07;;;;;;;32.57;15.90;;;;;;;19.05;54.60;100677.88;5050744;28;20040;-68
2022/11/15 05:28:33;;;;;;;30.47;14.87;;;;;;;19.06;54.61;100687.56;5050417;28;20466;-68
2022/11/15 05:31:07;;;;;;;27.03;13.77;;;;;;;18.51;55.57;100679.53;5048717;28;20029;-68
2022/11/15 05:33:34;;;;;;;34.07;14.07;;;;;;;19.26;54.27;100680.44;5048960;28;20110;-68
2022/11/15 05:36:06;;;;;;;25.93;13.70;;;;;;;19.40;53.19;100669.16;5050717;28;20482;-67
2022/11/15 05:38:32;;;;;;;32.85;12.75;;;;;;;18.36;56.71;100674.00;5066425;28;20036;-67
2022/11/15 05:40:59;;;;;;;30.07;14.83;;;;;;;18.94;54.18;100672.25;5050505;28;20021;-67
2022/11/15 05:43:25;;;;;;;18.73;11.80;;;;;;;18.52;56.44;100678.59;5049641;28;20044;-67
2022/11/15 05:45:51;;;;;;;28.20;12.57;;;;;;;18.81;54.63;100664.84;5048992;28;20021;-68
2022/11/15 05:48:17;;;;;;;23.33;11.77;;;;;;;19.17;53.86;100680.91;5049128;28;20028;-67
2022/11/15 05:50:45;;;;;;;27.67;12.50;;;;;;;18.72;53.66;100670.56;5050637;28;20493;-68
2022/11/15 05:53:14;;;;;;;24.10;11.20;;;;;;;18.76;55.87;100680.09;5049408;28;20433;-68
2022/11/15 05:55:40;;;;;;;20.80;10.77;;;;;;;18.54;55.85;100672.28;5083187;28;20021;-67
2022/11/15 05:58:06;;;;;;;27.97;11.50;;;;;;;18.51;56.08;100683.03;5050135;28;20068;-68
2022/11/15 06:00:32;;;;;;;23.27;11.17;;;;;;;17.78;57.33;100680.03;5049703;28;20529;-68
2022/11/15 06:02:57;;;;;;;20.90;10.67;;;;;;;18.17;56.74;100683.69;5049508;28;20071;-68
2022/11/15 06:05:22;;;;;;;17.90;10.40;;;;;;;18.66;55.96;100692.06;5083711;28;20417;-67
2022/11/15 06:07:48;;;;;;;19.43;10.80;;;;;;;18.98;53.60;100681.78;5050655;28;20047;-68
2022/11/15 06:10:13;;;;;;;19.70;10.53;;;;;;;19.06;52.27;100690.22;5049844;28;20028;-68
2022/11/15 06:12:38;;;;;;;19.33;9.97;;;;;;;19.45;51.75;100697.19;5048953;28;20025;-67
2022/11/15 06:15:04;;;;;;;22.17;10.33;;;;;;;19.52;52.04;100697.69;5047988;28;20083;-67
2022/11/15 06:17:29;;;;;;;25.07;10.90;;;;;;;19.53;51.44;100704.72;5050031;28;20458;-67
2022/11/15 06:19:55;;;;;;;18.97;9.27;;;;;;;19.20;52.75;100700.13;5049069;28;20115;-68
2022/11/15 06:22:20;;;;;;;25.33;9.70;;;;;;;19.79;50.49;100706.06;5050581;28;20360;-67
2022/11/15 06:24:46;;;;;;;17.70;8.93;;;;;;;18.88;52.34;100713.13;5049273;28;20040;-67
2022/11/15 06:27:12;;;;;;;25.97;9.70;;;;;;;18.91;53.65;100712.97;5048364;28;20401;-67
2022/11/15 06:29:37;;;;;;;16.27;9.00;;;;;;;18.65;54.15;100722.09;5051116;28;20021;-68
2022/11/15 06:32:03;;;;;;;22.03;11.00;;;;;;;17.78;55.71;100720.53;5083307;28;20025;-68
2022/11/15 06:34:28;;;;;;;18.03;8.07;;;;;;;17.55;56.45;100718.00;5047644;28;20043;-68
2022/11/15 06:36:53;;;;;;;14.63;8.10;;;;;;;18.76;52.85;100717.16;5050542;28;20032;-68
2022/11/15 06:39:19;;;;;;;18.70;8.97;;;;;;;18.97;52.03;100706.53;5050235;28;20029;-67
2022/11/15 06:41:44;;;;;;;17.07;7.90;;;;;;;18.38;52.23;100710.97;5053989;28;20033;-68
2022/11/15 06:44:10;;;;;;;14.23;7.97;;;;;;;18.53;52.58;100709.41;5051815;28;20029;-69
2022/11/15 06:46:35;;;;;;;18.67;7.97;;;;;;;18.56;52.63;100711.91;5048539;28;20103;-67
2022/11/15 06:49:01;;;;;;;18.33;8.20;;;;;;;19.31;49.92;100718.19;5048674;28;20013;-68
2022/11/15 06:51:26;;;;;;;26.03;9.00;;;;;;;18.72;50.01;100712.94;5050760;28;20461;-68
2022/11/15 06:53:52;;;;;;;20.63;8.50;;;;;;;18.27;53.00;100722.00;5051667;28;20028;-68
2022/11/15 06:56:17;;;;;;;16.87;8.00;;;;;;;18.41;52.31;100730.22;5046523;28;20031;-69
2022/11/15 06:58:42;;;;;;;14.93;8.10;;;;;;;18.31;52.77;100734.19;5047871;28;20543;-68
2022/11/15 07:01:10;;;;;;;14.73;7.97;;;;;;;18.33;51.78;100735.00;5046561;28;20051;-68
2022/11/15 07:03:41;;;;;;;16.13;8.33;;;;;;;19.32;49.20;100733.16;5048510;28;20020;-69
2022/11/15 07:06:08;;;;;;;19.70;9.30;;;;;;;18.80;50.35;100726.69;5057584;28;20188;-69
2022/11/15 07:08:35;;;;;;;25.53;10.27;;;;;;;18.52;50.86;100728.88;5052350;28;20508;-68
2022/11/15 07:11:03;;;;;;;21.97;10.47;;;;;;;19.04;49.98;100713.28;5052983;28;20028;-68
2022/11/15 07:13:32;;;;;;;22.23;10.00;;;;;;;18.81;50.45;100717.81;5053220;28;20028;-68
2022/11/15 07:16:01;;;;;;;21.43;9.47;;;;;;;18.91;50.06;100726.22;5052382;28;20048;-68
2022/11/15 07:18:27;;;;;;;17.07;7.80;;;;;;;18.04;52.70;100725.66;5051764;28;20119;-68
2022/11/15 07:20:52;;;;;;;21.30;7.60;;;;;;;17.99;53.02;100717.94;5085214;28;20157;-68
2022/11/15 07:23:18;;;;;;;15.33;7.30;;;;;;;18.79;50.56;100725.00;5050771;28;20037;-68
2022/11/15 07:25:43;;;;;;;19.97;7.63;;;;;;;18.97;49.94;100725.06;5056682;28;20486;-69
2022/11/15 07:28:08;;;;;;;15.67;7.60;;;;;;;18.95;50.31;100724.28;5049632;28;20044;-68
2022/11/15 07:30:34;;;;;;;15.80;7.20;;;;;;;18.59;51.30;100733.81;5027164;28;20017;-67
2022/11/15 07:33:00;;;;;;;14.73;6.73;;;;;;;18.47;50.98;100735.22;5050299;28;20091;-68
2022/11/15 07:35:27;;;;;;;24.73;6.67;;;;;;;17.90;53.15;100731.50;5073384;28;20398;-68
2022/11/15 07:38:03;;;;;;;27.33;8.13;;;;;;;18.62;50.14;100722.25;5052271;28;20020;-68
2022/11/15 07:40:31;;;;;;;19.30;6.80;;;;;;;19.09;48.63;100708.59;5050631;28;20100;-68
2022/11/15 07:43:02;;;;;;;23.17;6.63;;;;;;;18.81;48.57;100715.16;5051603;28;20108;-68
2022/11/15 07:45:27;;;;;;;24.67;6.50;;;;;;;19.32;47.73;100715.44;5054222;28;20029;-68
2022/11/15 07:47:53;;;;;;;21.30;6.87;;;;;;;19.28;47.66;100713.03;5052874;28;20028;-68
2022/11/15 07:50:18;;;;;;;18.97;7.70;;;;;;;18.99;48.42;100715.28;5055166;28;20074;-68
2022/11/15 07:52:45;;;;;;;23.03;8.87;;;;;;;18.95;48.73;100719.00;5052009;28;20025;-68
2022/11/15 07:55:11;;;;;;;25.23;10.93;;;;;;;18.38;50.45;100719.78;5050536;28;20311;-69
2022/11/15 07:57:36;;;;;;;32.77;11.83;;;;;;;19.47;47.97;100715.66;5050469;28;20478;-68
2022/11/15 08:00:04;;;;;;;29.60;12.17;;;;;;;19.36;47.65;100710.00;5054996;28;20033;-68
2022/11/15 08:02:29;;;;;;;17.77;10.67;;;;;;;19.42;47.89;100707.06;5057045;28;20036;-68
2022/11/15 08:04:55;;;;;;;19.70;11.07;;;;;;;18.58;49.83;100710.06;5050983;28;20390;-68
2022/11/15 08:07:20;;;;;;;21.77;11.33;;;;;;;19.34;48.24;100704.75;5045313;28;20079;-68
2022/11/15 08:09:45;;;;;;;22.80;11.90;;;;;;;18.51;49.94;100700.72;5065702;28;20017;-68
2022/11/15 08:12:11;;;;;;;23.10;11.67;;;;;;;19.43;47.84;100688.41;5049994;28;20059;-68
2022/11/15 08:14:36;;;;;;;22.97;11.90;;;;;;;18.79;50.04;100692.34;5049857;28;20029;-68
2022/11/15 08:17:01;;;;;;;17.20;11.17;;;;;;;18.29;50.78;100693.72;5053576;28;20029;-68
2022/11/15 08:19:27;;;;;;;27.57;11.17;;;;;;;17.88;52.62;100689.28;5056292;28;20029;-68
2022/11/15 08:21:52;;;;;;;21.47;11.00;;;;;;;17.90;52.71;100689.19;5053404;28;20057;-68
2022/11/15 08:24:17;;;;;;;20.00;11.60;;;;;;;18.39;51.49;100684.44;5053464;28;20064;-68
2022/11/15 08:26:43;;;;;;;25.07;11.90;;;;;;;18.46;51.85;100677.97;5049388;28;20028;-68
2022/11/15 08:29:08;;;;;;;19.27;10.23;;;;;;;18.64;51.21;100689.47;5052348;28;20025;-68
2022/11/15 08:31:36;;;;;;;27.10;12.17;;;;;;;18.38;52.20;100682.75;5051664;28;20107;-68
2022/11/15 08:34:02;;;;;;;23.97;11.03;;;;;;;17.95;53.91;100679.31;5059951;28;20033;-68
2022/11/15 08:36:28;;;;;;;19.53;11.10;;;;;;;18.54;52.33;100682.03;5048318;28;20031;-68
2022/11/15 08:38:53;;;;;;;18.40;10.03;;;;;;;18.10;53.59;100681.28;5049743;28;20108;-68
2022/11/15 08:41:31;;;;;;;20.17;10.70;;;;;;;18.37;52.59;100675.72;5051421;28;20033;-68
2022/11/15 08:43:57;;;;;;;22.13;9.93;;;;;;;18.66;52.40;100676.19;5051689;28;20112;-68
2022/11/15 08:46:23;;;;;;;21.67;9.17;;;;;;;18.54;51.88;100676.75;5050925;28;20116;-68
2022/11/15 08:48:48;;;;;;;21.73;9.77;;;;;;;18.95;50.82;100672.19;5048841;28;20051;-68
2022/11/15 08:51:14;;;;;;;18.97;9.40;;;;;;;18.65;51.09;100663.88;5050648;28;20074;-68
2022/11/15 08:53:40;;;;;;;16.70;9.40;;;;;;;18.35;52.03;100664.31;5051538;28;20553;-68
2022/11/15 08:56:14;;;;;;;17.77;9.27;;;;;;;17.95;53.27;100666.94;5051376;28;20493;-68
2022/11/15 08:58:40;;;;;;;19.63;9.17;;;;;;;18.42;52.14;100652.56;5050933;28;20032;-68
2022/11/15 09:01:05;;;;;;;15.30;9.03;;;;;;;18.46;52.15;100653.25;5051215;28;20049;-68
2022/11/15 09:03:31;;;;;;;15.90;8.80;;;;;;;17.48;54.97;100653.97;5049559;28;20050;-68
2022/11/15 09:05:58;;;;;;;35.57;9.13;;;;;;;18.03;54.00;100648.13;5052363;28;20124;-68
2022/11/15 09:08:25;;;;;;;23.37;8.27;;;;;;;17.64;53.98;100664.75;5052208;28;20033;-68
2022/11/15 09:10:51;;;;;;;16.07;8.27;;;;;;;17.67;53.88;100669.91;5050660;28;20513;-68
2022/11/15 09:13:16;;;;;;;13.40;7.23;;;;;;;17.95;52.97;100668.75;5050840;28;20036;-69
2022/11/15 09:15:42;;;;;;;18.70;8.00;;;;;;;18.25;52.76;100665.69;5048332;28;20029;-68
2022/11/15 09:18:07;;;;;;;11.47;7.33;;;;;;;18.43;52.32;100664.84;5059476;28;20037;-68
2022/11/15 09:20:33;;;;;;;16.23;8.13;;;;;;;18.58;51.34;100667.72;5048918;28;20120;-68
2022/11/15 09:23:02;;;;;;;12.23;7.97;;;;;;;17.65;53.58;100666.44;5051093;28;20036;-68
2022/11/15 09:25:28;;;;;;;12.33;7.90;;;;;;;18.63;51.55;100665.75;5050802;28;20021;-68
2022/11/15 09:27:53;;;;;;;12.47;6.90;;;;;;;18.43;52.32;100664.84;5049253;28;20052;-68
2022/11/15 09:30:19;;;;;;;18.77;7.93;;;;;;;18.36;52.66;100651.97;5049402;28;20028;-68
2022/11/15 09:32:44;;;;;;;14.07;8.23;;;;;;;18.14;52.09;100653.78;5050127;28;20020;-69
2022/11/15 09:35:09;;;;;;;11.40;6.97;;;;;;;18.34;51.71;100662.63;5050634;28;20407;-68
2022/11/15 09:37:35;;;;;;;14.23;7.50;;;;;;;18.49;51.34;100669.00;5082283;28;20486;-68
2022/11/15 09:40:01;;;;;;;14.83;7.17;;;;;;;18.25;52.29;100660.41;5083028;28;20107;-69
2022/11/15 09:42:51;;;;;;;9.17;6.07;;;;;;;18.17;52.30;100651.94;5049670;28;20036;-69
2022/11/15 09:45:30;;;;;;;13.23;5.70;;;;;;;19.10;50.61;100662.66;5051300;28;20028;-69
2022/11/15 09:48:24;;;;;;;12.30;5.30;;;;;;;19.87;48.55;100660.63;5049304;28;20025;-68
2022/11/15 09:50:58;;;;;;;10.27;4.33;;;;;;;18.91;49.56;100659.16;5050391;28;20059;-68
2022/11/15 09:53:35;;;;;;;9.30;3.93;;;;;;;19.04;49.83;100652.34;5051806;28;20046;-68
2022/11/15 09:56:05;;;;;;;8.77;4.03;;;;;;;19.54;47.98;100649.94;5050233;28;20044;-68
2022/11/15 09:58:44;;;;;;;7.25;3.55;;;;;;;19.14;48.91;100645.66;5048650;28;20090;-69
2022/11/15 10:01:51;;;;;;;8.38;3.60;;;;;;;19.24;47.53;100640.78;5050088;28;20402;-68
2022/11/15 10:04:17;;;;;;;14.33;4.20;;;;;;;20.05;46.05;100626.97;5044699;28;20445;-68
2022/11/15 10:06:52;;;;;;;7.97;3.87;;;;;;;19.62;47.13;100639.81;5048403;28;20033;-68
2022/11/15 10:09:31;;;;;;;10.95;3.53;;;;;;;20.02;46.32;100624.50;5050160;28;20029;-68
2022/11/15 10:11:57;;;;;;;8.05;3.90;;;;;;;20.26;45.54;100624.13;5049831;28;20039;-68
2022/11/15 10:14:26;;;;;;;7.45;3.60;;;;;;;19.60;46.68;100616.00;5083480;28;20316;-68
2022/11/15 10:17:45;;;;;;;5.85;3.70;;;;;;;19.66;46.19;100610.41;5048007;28;20554;-68
2022/11/15 10:20:29;;;;;;;5.85;3.08;;;;;;;19.13;47.91;100612.16;5031184;28;20053;-68
2022/11/15 10:23:04;;;;;;;7.15;3.08;;;;;;;20.15;45.45;100614.94;5049835;28;20021;-68
2022/11/15 10:25:32;;;;;;;11.00;3.60;;;;;;;20.27;45.01;100604.59;5049051;28;20083;-68
2022/11/15 10:28:15;;;;;;;11.32;3.20;;;;;;;20.65;44.31;100607.81;5046963;28;20031;-68
2022/11/15 10:30:46;;;;;;;18.27;3.60;;;;;;;20.45;44.50;100602.75;5051157;28;20363;-68
2022/11/15 10:33:25;;;;;;;8.25;3.22;;;;;;;21.41;42.91;100595.53;5048988;28;20680;-68
2022/11/15 10:36:09;;;;;;;4.75;3.00;;;;;;;19.83;45.06;100595.44;5048903;28;20058;-68
2022/11/15 10:38:50;;;;;;;8.10;3.22;;;;;;;20.03;45.21;100590.84;5053739;28;20175;-68
2022/11/15 10:41:29;;;;;;;6.05;3.17;;;;;;;20.53;44.38;100579.28;5061930;28;20076;-68
2022/11/15 10:44:06;;;;;;;8.10;2.88;;;;;;;20.53;43.67;100575.78;5062765;28;20491;-68
2022/11/15 10:46:33;;;;;;;10.18;2.88;;;;;;;20.38;43.43;100567.72;5042490;28;20028;-68
2022/11/15 10:49:11;;;;;;;5.43;2.30;;;;;;;20.70;42.97;100567.75;5047425;28;20123;-68
2022/11/15 10:51:44;;;;;;;7.38;2.20;;;;;;;19.78;45.02;100558.53;5049298;28;20094;-68
2022/11/15 10:54:13;;;;;;;6.95;2.00;;;;;;;19.26;46.28;100575.34;5048852;28;20028;-68
2022/11/15 10:56:40;;;;;;;6.30;2.40;;;;;;;18.52;47.38;100562.13;5051021;28;20025;-68
2022/11/15 10:59:16;;;;;;;9.55;2.47;;;;;;;19.09;46.79;100568.22;5048959;28;20573;-69
2022/11/15 11:01:48;;;;;;;7.20;2.40;;;;;;;18.38;47.86;100570.72;5048141;28;20090;-68
2022/11/15 11:04:14;;;;;;;9.80;2.60;;;;;;;18.98;46.62;100570.53;5050473;28;20028;-68
2022/11/15 11:06:54;;;;;;;5.97;2.25;;;;;;;19.40;45.57;100571.09;5049080;28;20379;-68
2022/11/15 11:09:37;;;;;;;6.20;2.00;;;;;;;19.22;46.29;100559.66;5048502;28;20107;-68
2022/11/15 11:12:06;;;;;;;6.78;2.55;;;;;;;19.43;45.59;100555.06;5048869;28;20375;-68
2022/11/15 11:14:34;;;;;;;10.18;2.30;;;;;;;19.83;44.81;100537.94;5048587;28;20033;-68
2022/11/15 11:17:30;;;;;;;5.55;2.42;;;;;;;19.49;45.25;100537.06;5048173;28;20021;-68
2022/11/15 11:20:19;;;;;;;10.02;2.67;;;;;;;19.96;44.41;100524.00;5048461;28;20063;-68
2022/11/15 11:23:09;;;;;;;4.22;1.90;;;;;;;20.21;43.10;100515.59;5048135;28;20075;-68
2022/11/15 11:25:56;;;;;;;8.73;2.60;;;;;;;20.38;43.21;100517.28;5050452;28;20079;-68
2022/11/15 11:28:53;;;;;;;6.85;1.70;;;;;;;20.36;43.41;100519.19;5048138;28;20500;-68
2022/11/15 11:31:37;;;;;;;11.98;1.95;;;;;;;20.40;43.22;100510.09;5040520;28;20132;-68
2022/11/15 11:34:31;;;;;;;8.57;2.22;;;;;;;20.38;43.17;100501.38;5049876;28;20032;-68
2022/11/15 11:37:12;;;;;;;;;;;;;;;19.97;42.88;100496.56;5050099;28;20026;-68
2022/11/15 11:39:53;;;;;;;8.98;1.90;;;;;;;20.69;42.02;100491.69;5047713;28;20397;-68
2022/11/15 11:42:37;;;;;;;6.20;1.50;;;;;;;19.60;43.69;100506.47;5047421;28;20072;-68